^^
Station Historical Data
Daily Summary for June 6, 2017 Units:  Both    English   Metric
« Previous Day
Next Day »
Daily Weekly Monthly Yearly Custom
  High: Low: Average:
Temperature: 75.4 °F /  24.1 °C 48.6 °F /  9.2 °C 61.5 °F /  16.4 °C
Dew Point: 49.1 °F /  9.5 °C 33.8 °F /  1 °C 41.1 °F /  5.1 °C
Humidity: 80% 26% 49%
Wind Speed: 13.0mph /  20.9km/h - 1.7mph /  2.7km/h
Wind Gust: 20.0mph /  32.2km/h - -
Wind- - WSW
Pressure: 30.30 in /  1026 hPa 30.17 in /  1021.6 hPa -
Precipitation: 0.00 in /  0 mm    
Historical Graphs
 
 
Tabular Data for June 6, 2017
Time Temperature Dew Point Pressure Wind Wind Speed Wind Gust Humidity Rainfall Rate (Hourly) solar Conditions
00:01 52.0 °F /  11.1 °C 37.2 °F /  2.9 °C 30.29in /  1025.6hPa Calm     57% 0.00in /  0mm 0.0 W/m2
00:07 51.8 °F /  11 °C 37.0 °F /  2.8 °C 30.29in /  1025.6hPa Calm     57% 0.00in /  0mm 0.0 W/m2
00:13 51.6 °F /  10.9 °C 36.9 °F /  2.7 °C 30.30in /  1026hPa Calm     57% 0.00in /  0mm 0.0 W/m2
00:19 51.6 °F /  10.9 °C 37.4 °F /  3 °C 30.29in /  1025.6hPa Calm     58% 0.00in /  0mm 0.0 W/m2
00:25 51.4 °F /  10.8 °C 37.6 °F /  3.1 °C 30.29in /  1025.6hPa Calm     59% 0.00in /  0mm 0.0 W/m2
00:31 51.3 °F /  10.7 °C 37.4 °F /  3 °C 30.29in /  1025.6hPa Calm     59% 0.00in /  0mm 0.0 W/m2
00:38 51.1 °F /  10.6 °C 37.2 °F /  2.9 °C 30.29in /  1025.6hPa Calm     59% 0.00in /  0mm 0.0 W/m2
00:44 50.9 °F /  10.5 °C 37.0 °F /  2.8 °C 30.29in /  1025.6hPa Calm     59% 0.00in /  0mm 0.0 W/m2
00:50 50.7 °F /  10.4 °C 37.4 °F /  3 °C 30.29in /  1025.6hPa East 0.9mph /  1.4km/h 1.0mph /  1.6km/h 60% 0.00in /  0mm 0.0 W/m2
00:56 50.5 °F /  10.3 °C 37.2 °F /  2.9 °C 30.29in /  1025.6hPa Calm     60% 0.00in /  0mm 0.0 W/m2
01:02 50.4 °F /  10.2 °C 37.0 °F /  2.8 °C 30.29in /  1025.6hPa Calm     60% 0.00in /  0mm 0.0 W/m2
01:08 50.4 °F /  10.2 °C 37.0 °F /  2.8 °C 30.29in /  1025.6hPa Calm     60% 0.00in /  0mm 0.0 W/m2
01:14 50.4 °F /  10.2 °C 37.0 °F /  2.8 °C 30.29in /  1025.6hPa Calm     60% 0.00in /  0mm 0.0 W/m2
01:20 50.2 °F /  10.1 °C 36.9 °F /  2.7 °C 30.28in /  1025.3hPa Calm     60% 0.00in /  0mm 0.0 W/m2
01:27 50.0 °F /  10 °C 37.0 °F /  2.8 °C 30.28in /  1025.3hPa Calm     61% 0.00in /  0mm 0.0 W/m2
01:33 49.8 °F /  9.9 °C 37.4 °F /  3 °C 30.28in /  1025.3hPa Calm     62% 0.00in /  0mm 0.0 W/m2
01:39 49.6 °F /  9.8 °C 37.2 °F /  2.9 °C 30.28in /  1025.3hPa Calm     62% 0.00in /  0mm 0.0 W/m2
01:45 49.6 °F /  9.8 °C 37.2 °F /  2.9 °C 30.28in /  1025.3hPa Calm     62% 0.00in /  0mm 0.0 W/m2
01:51 49.5 °F /  9.7 °C 37.0 °F /  2.8 °C 30.28in /  1025.3hPa Calm   1.0mph /  1.6km/h 62% 0.00in /  0mm 0.0 W/m2
01:57 49.5 °F /  9.7 °C 37.4 °F /  3 °C 30.27in /  1024.9hPa Calm     63% 0.00in /  0mm 0.0 W/m2
01:59 49.5 °F /  9.7 °C 37.4 °F /  3 °C 30.27in /  1024.9hPa Calm     63% 0.00in /  0mm 0.0 W/m2
02:06 49.3 °F /  9.6 °C 37.2 °F /  2.9 °C 30.27in /  1024.9hPa Calm     63% 0.00in /  0mm 0.0 W/m2
02:12 49.3 °F /  9.6 °C 37.2 °F /  2.9 °C 30.27in /  1024.9hPa Calm     63% 0.00in /  0mm 0.0 W/m2
02:18 49.3 °F /  9.6 °C 37.2 °F /  2.9 °C 30.27in /  1024.9hPa Calm     63% 0.00in /  0mm 0.0 W/m2
02:24 49.3 °F /  9.6 °C 37.2 °F /  2.9 °C 30.27in /  1024.9hPa Calm     63% 0.00in /  0mm 0.0 W/m2
02:30 49.3 °F /  9.6 °C 37.6 °F /  3.1 °C 30.27in /  1024.9hPa Calm   1.0mph /  1.6km/h 64% 0.00in /  0mm 0.0 W/m2
02:36 49.3 °F /  9.6 °C 37.6 °F /  3.1 °C 30.27in /  1024.9hPa Calm     64% 0.00in /  0mm 0.0 W/m2
02:42 49.3 °F /  9.6 °C 37.6 °F /  3.1 °C 30.27in /  1024.9hPa Calm   1.0mph /  1.6km/h 64% 0.00in /  0mm 0.0 W/m2
02:48 49.3 °F /  9.6 °C 37.9 °F /  3.3 °C 30.27in /  1024.9hPa Calm     65% 0.00in /  0mm 0.0 W/m2
02:55 49.3 °F /  9.6 °C 37.9 °F /  3.3 °C 30.27in /  1024.9hPa Calm   1.0mph /  1.6km/h 65% 0.00in /  0mm 0.0 W/m2
03:01 49.3 °F /  9.6 °C 37.9 °F /  3.3 °C 30.27in /  1024.9hPa Calm   1.0mph /  1.6km/h 65% 0.00in /  0mm 0.0 W/m2
03:07 49.3 °F /  9.6 °C 37.9 °F /  3.3 °C 30.26in /  1024.6hPa Calm   1.0mph /  1.6km/h 65% 0.00in /  0mm 0.0 W/m2
03:13 49.5 °F /  9.7 °C 38.7 °F /  3.7 °C 30.26in /  1024.6hPa Calm   1.0mph /  1.6km/h 66% 0.00in /  0mm 0.0 W/m2
03:19 49.5 °F /  9.7 °C 38.7 °F /  3.7 °C 30.26in /  1024.6hPa Calm   1.0mph /  1.6km/h 66% 0.00in /  0mm 0.0 W/m2
03:25 49.6 °F /  9.8 °C 37.9 °F /  3.3 °C 30.27in /  1024.9hPa Calm     64% 0.00in /  0mm 0.0 W/m2
03:32 49.6 °F /  9.8 °C 38.3 °F /  3.5 °C 30.26in /  1024.6hPa Calm     65% 0.00in /  0mm 0.0 W/m2
03:38 49.5 °F /  9.7 °C 38.1 °F /  3.4 °C 30.27in /  1024.9hPa Calm     65% 0.00in /  0mm 0.0 W/m2
03:44 49.6 °F /  9.8 °C 38.3 °F /  3.5 °C 30.27in /  1024.9hPa Calm     65% 0.00in /  0mm 0.0 W/m2
03:50 49.6 °F /  9.8 °C 38.3 °F /  3.5 °C 30.26in /  1024.6hPa Calm     65% 0.00in /  0mm 0.0 W/m2
03:56 49.6 °F /  9.8 °C 38.7 °F /  3.7 °C 30.26in /  1024.6hPa Calm     66% 0.00in /  0mm 0.0 W/m2
04:02 49.6 °F /  9.8 °C 38.7 °F /  3.7 °C 30.26in /  1024.6hPa Calm     66% 0.00in /  0mm 0.0 W/m2
04:08 49.6 °F /  9.8 °C 38.7 °F /  3.7 °C 30.27in /  1024.9hPa Calm     66% 0.00in /  0mm 0.0 W/m2
04:15 49.5 °F /  9.7 °C 38.7 °F /  3.7 °C 30.26in /  1024.6hPa Calm     66% 0.00in /  0mm 0.0 W/m2
04:21 49.5 °F /  9.7 °C 39.0 °F /  3.9 °C 30.26in /  1024.6hPa Calm     67% 0.00in /  0mm 0.0 W/m2
04:27 49.3 °F /  9.6 °C 38.8 °F /  3.8 °C 30.27in /  1024.9hPa Calm     67% 0.00in /  0mm 0.0 W/m2
04:33 49.1 °F /  9.5 °C 38.7 °F /  3.7 °C 30.27in /  1024.9hPa Calm     67% 0.00in /  0mm 0.0 W/m2
04:39 48.9 °F /  9.4 °C 38.8 °F /  3.8 °C 30.27in /  1024.9hPa Calm     68% 0.00in /  0mm 0.0 W/m2
04:45 48.9 °F /  9.4 °C 38.8 °F /  3.8 °C 30.27in /  1024.9hPa Calm     68% 0.00in /  0mm 0.0 W/m2
04:51 48.7 °F /  9.3 °C 39.0 °F /  3.9 °C 30.27in /  1024.9hPa Calm     69% 0.00in /  0mm 0.0 W/m2
04:58 48.9 °F /  9.4 °C 39.2 °F /  4 °C 30.27in /  1024.9hPa Calm     69% 0.00in /  0mm 0.0 W/m2
05:04 48.7 °F /  9.3 °C 39.0 °F /  3.9 °C 30.27in /  1024.9hPa Calm     69% 0.00in /  0mm 0.0 W/m2
05:10 48.7 °F /  9.3 °C 39.0 °F /  3.9 °C 30.27in /  1024.9hPa Calm     69% 0.00in /  0mm 0.0 W/m2
05:16 48.9 °F /  9.4 °C 39.2 °F /  4 °C 30.27in /  1024.9hPa Calm   2.0mph /  3.2km/h 69% 0.00in /  0mm 0.0 W/m2
05:22 49.5 °F /  9.7 °C 39.7 °F /  4.3 °C 30.27in /  1024.9hPa Calm   1.0mph /  1.6km/h 69% 0.00in /  0mm 0.0 W/m2
05:28 49.8 °F /  9.9 °C 39.7 °F /  4.3 °C 30.27in /  1024.9hPa Calm   1.0mph /  1.6km/h 68% 0.00in /  0mm 0.0 W/m2
05:34 50.2 °F /  10.1 °C 40.1 °F /  4.5 °C 30.27in /  1024.9hPa Calm   1.0mph /  1.6km/h 68% 0.00in /  0mm 0.0 W/m2
05:40 50.4 °F /  10.2 °C 40.3 °F /  4.6 °C 30.27in /  1024.9hPa Calm   2.0mph /  3.2km/h 68% 0.00in /  0mm 0.0 W/m2
05:47 50.5 °F /  10.3 °C 39.9 °F /  4.4 °C 30.27in /  1024.9hPa Calm     67% 0.00in /  0mm 0.0 W/m2
05:53 50.4 °F /  10.2 °C 40.3 °F /  4.6 °C 30.27in /  1024.9hPa Calm     68% 0.00in /  0mm 0.0 W/m2
05:59 50.4 °F /  10.2 °C 40.3 °F /  4.6 °C 30.27in /  1024.9hPa Calm     68% 0.00in /  0mm 0.0 W/m2
06:05 50.4 °F /  10.2 °C 40.3 °F /  4.6 °C 30.27in /  1024.9hPa Calm     68% 0.00in /  0mm 0.0 W/m2
06:11 50.2 °F /  10.1 °C 40.5 °F /  4.7 °C 30.27in /  1024.9hPa Calm     69% 0.00in /  0mm 0.0 W/m2
06:17 50.0 °F /  10 °C 40.6 °F /  4.8 °C 30.28in /  1025.3hPa Calm     70% 0.00in /  0mm 0.0 W/m2
06:23 49.8 °F /  9.9 °C 40.8 °F /  4.9 °C 30.28in /  1025.3hPa Calm     71% 0.00in /  0mm 0.0 W/m2
06:29 49.5 °F /  9.7 °C 40.5 °F /  4.7 °C 30.28in /  1025.3hPa Calm     71% 0.00in /  0mm 5.0 W/m2
06:36 49.3 °F /  9.6 °C 40.6 °F /  4.8 °C 30.28in /  1025.3hPa Calm     72% 0.00in /  0mm 7.0 W/m2
06:42 49.1 °F /  9.5 °C 40.8 °F /  4.9 °C 30.28in /  1025.3hPa ENE 0.9mph /  1.4km/h 1.0mph /  1.6km/h 73% 0.00in /  0mm 11.0 W/m2
06:48 48.9 °F /  9.4 °C 41.0 °F /  5 °C 30.29in /  1025.6hPa Calm     74% 0.00in /  0mm 12.0 W/m2
06:54 48.7 °F /  9.3 °C 41.2 °F /  5.1 °C 30.29in /  1025.6hPa Calm     75% 0.00in /  0mm 14.0 W/m2
07:00 48.7 °F /  9.3 °C 41.2 °F /  5.1 °C 30.29in /  1025.6hPa Calm     75% 0.00in /  0mm 18.0 W/m2
07:06 48.6 °F /  9.2 °C 41.4 °F /  5.2 °C 30.29in /  1025.6hPa Calm     76% 0.00in /  0mm 19.0 W/m2
07:12 48.6 °F /  9.2 °C 41.7 °F /  5.4 °C 30.29in /  1025.6hPa Calm     77% 0.00in /  0mm 21.0 W/m2
07:19 48.6 °F /  9.2 °C 42.1 °F /  5.6 °C 30.29in /  1025.6hPa Calm     78% 0.00in /  0mm 23.0 W/m2
07:25 48.7 °F /  9.3 °C 42.3 °F /  5.7 °C 30.30in /  1026hPa Calm     78% 0.00in /  0mm 25.0 W/m2
07:31 48.9 °F /  9.4 °C 42.6 °F /  5.9 °C 30.30in /  1026hPa Calm     79% 0.00in /  0mm 26.0 W/m2
07:37 49.3 °F /  9.6 °C 43.3 °F /  6.3 °C 30.30in /  1026hPa Calm     80% 0.00in /  0mm 28.0 W/m2
07:43 49.8 °F /  9.9 °C 43.9 °F /  6.6 °C 30.30in /  1026hPa Calm     80% 0.00in /  0mm 30.0 W/m2
07:49 50.7 °F /  10.4 °C 44.4 °F /  6.9 °C 30.30in /  1026hPa Calm     79% 0.00in /  0mm 32.0 W/m2
07:55 52.5 °F /  11.4 °C 44.8 °F /  7.1 °C 30.30in /  1026hPa Calm     75% 0.00in /  0mm 62.0 W/m2
08:01 54.7 °F /  12.6 °C 45.5 °F /  7.5 °C 30.30in /  1026hPa Calm   1.0mph /  1.6km/h 71% 0.00in /  0mm 272.0 W/m2
08:08 56.8 °F /  13.8 °C 45.1 °F /  7.3 °C 30.30in /  1026hPa Calm   1.0mph /  1.6km/h 65% 0.00in /  0mm 295.0 W/m2
08:14 58.8 °F /  14.9 °C 45.9 °F /  7.7 °C 30.30in /  1026hPa Calm     62% 0.00in /  0mm 313.0 W/m2
08:20 60.4 °F /  15.8 °C 45.7 °F /  7.6 °C 30.30in /  1026hPa NNW 2.9mph /  4.7km/h 3.0mph /  4.8km/h 58% 0.00in /  0mm 330.0 W/m2
08:26 61.9 °F /  16.6 °C 45.5 °F /  7.5 °C 30.30in /  1026hPa NNE 2.9mph /  4.7km/h 5.0mph /  8km/h 55% 0.00in /  0mm 352.0 W/m2
08:32 63.0 °F /  17.2 °C 46.0 °F /  7.8 °C 30.30in /  1026hPa North 0.9mph /  1.4km/h 3.0mph /  4.8km/h 54% 0.00in /  0mm 369.0 W/m2
08:38 63.7 °F /  17.6 °C 45.7 °F /  7.6 °C 30.30in /  1026hPa NNE 2.9mph /  4.7km/h 5.0mph /  8km/h 52% 0.00in /  0mm 387.0 W/m2
08:44 64.2 °F /  17.9 °C 46.2 °F /  7.9 °C 30.30in /  1026hPa Calm   3.0mph /  4.8km/h 52% 0.00in /  0mm 404.0 W/m2
08:50 64.8 °F /  18.2 °C 46.2 °F /  7.9 °C 30.30in /  1026hPa Calm   3.0mph /  4.8km/h 51% 0.00in /  0mm 441.0 W/m2
08:56 65.3 °F /  18.5 °C 46.8 °F /  8.2 °C 30.30in /  1026hPa NNW 0.9mph /  1.4km/h 3.0mph /  4.8km/h 51% 0.00in /  0mm 438.0 W/m2
09:02 65.7 °F /  18.7 °C 46.6 °F /  8.1 °C 30.30in /  1026hPa NNW 4.0mph /  6.4km/h 5.0mph /  8km/h 50% 0.00in /  0mm 450.0 W/m2
09:08 66.0 °F /  18.9 °C 46.4 °F /  8 °C 30.30in /  1026hPa North 0.9mph /  1.4km/h 6.0mph /  9.7km/h 49% 0.00in /  0mm 469.0 W/m2
09:14 66.4 °F /  19.1 °C 46.6 °F /  8.1 °C 30.30in /  1026hPa North 0.9mph /  1.4km/h 6.0mph /  9.7km/h 49% 0.00in /  0mm 485.0 W/m2
09:21 66.9 °F /  19.4 °C 46.6 °F /  8.1 °C 30.30in /  1026hPa Calm   2.0mph /  3.2km/h 48% 0.00in /  0mm 510.0 W/m2
09:27 67.5 °F /  19.7 °C 47.1 °F /  8.4 °C 30.30in /  1026hPa NW 2.0mph /  3.2km/h 3.0mph /  4.8km/h 48% 0.00in /  0mm 508.0 W/m2
09:33 67.8 °F /  19.9 °C 47.5 °F /  8.6 °C 30.30in /  1026hPa NNE 0.9mph /  1.4km/h 6.0mph /  9.7km/h 48% 0.00in /  0mm 527.0 W/m2
09:39 68.4 °F /  20.2 °C 47.3 °F /  8.5 °C 30.30in /  1026hPa North 2.9mph /  4.7km/h 12.0mph /  19.3km/h 47% 0.00in /  0mm 538.0 W/m2
09:45 68.4 °F /  20.2 °C 47.3 °F /  8.5 °C 30.30in /  1026hPa NNW 4.0mph /  6.4km/h 10.0mph /  16.1km/h 47% 0.00in /  0mm 552.0 W/m2
09:51 68.5 °F /  20.3 °C 47.5 °F /  8.6 °C 30.29in /  1025.6hPa North 2.9mph /  4.7km/h 7.0mph /  11.3km/h 47% 0.00in /  0mm 566.0 W/m2
09:58 68.9 °F /  20.5 °C 47.8 °F /  8.8 °C 30.29in /  1025.6hPa NNW 4.0mph /  6.4km/h 6.0mph /  9.7km/h 47% 0.00in /  0mm 575.0 W/m2
10:04 69.3 °F /  20.7 °C 47.7 °F /  8.7 °C 30.29in /  1025.6hPa NNW 2.9mph /  4.7km/h 7.0mph /  11.3km/h 46% 0.00in /  0mm 585.0 W/m2
10:10 69.4 °F /  20.8 °C 47.8 °F /  8.8 °C 30.29in /  1025.6hPa NNE 6.9mph /  11.1km/h 9.0mph /  14.5km/h 46% 0.00in /  0mm 596.0 W/m2
10:16 69.6 °F /  20.9 °C 47.8 °F /  8.8 °C 30.28in /  1025.3hPa Calm   7.0mph /  11.3km/h 46% 0.00in /  0mm 605.0 W/m2
10:22 70.0 °F /  21.1 °C 47.7 °F /  8.7 °C 30.27in /  1024.9hPa NW 0.9mph /  1.4km/h 8.0mph /  12.9km/h 45% 0.00in /  0mm 615.0 W/m2
10:28 70.3 °F /  21.3 °C 48.0 °F /  8.9 °C 30.27in /  1024.9hPa North 6.9mph /  11.1km/h 10.0mph /  16.1km/h 45% 0.00in /  0mm 624.0 W/m2
10:34 70.5 °F /  21.4 °C 48.2 °F /  9 °C 30.27in /  1024.9hPa North 12.1mph /  19.5km/h 12.1mph /  19.5km/h 45% 0.00in /  0mm 631.0 W/m2
10:40 70.3 °F /  21.3 °C 48.0 °F /  8.9 °C 30.27in /  1024.9hPa NE 4.0mph /  6.4km/h 12.0mph /  19.3km/h 45% 0.00in /  0mm 638.0 W/m2
10:47 70.3 °F /  21.3 °C 48.0 °F /  8.9 °C 30.27in /  1024.9hPa NNE 8.1mph /  13km/h 11.0mph /  17.7km/h 45% 0.00in /  0mm 643.0 W/m2
10:53 70.5 °F /  21.4 °C 48.2 °F /  9 °C 30.27in /  1024.9hPa ENE 6.0mph /  9.7km/h 15.0mph /  24.1km/h 45% 0.00in /  0mm 650.0 W/m2
10:59 70.9 °F /  21.6 °C 48.6 °F /  9.2 °C 30.26in /  1024.6hPa North 4.9mph /  7.9km/h 6.0mph /  9.7km/h 45% 0.00in /  0mm 654.0 W/m2
11:05 71.1 °F /  21.7 °C 48.0 °F /  8.9 °C 30.26in /  1024.6hPa NE 6.0mph /  9.7km/h 13.0mph /  20.9km/h 44% 0.00in /  0mm 657.0 W/m2
11:11 71.4 °F /  21.9 °C 48.4 °F /  9.1 °C 30.26in /  1024.6hPa NW 6.9mph /  11.1km/h 11.0mph /  17.7km/h 44% 0.00in /  0mm 698.0 W/m2
11:17 72.0 °F /  22.2 °C 48.9 °F /  9.4 °C 30.25in /  1024.3hPa NNW 4.9mph /  7.9km/h 12.0mph /  19.3km/h 44% 0.00in /  0mm 698.0 W/m2
11:23 72.3 °F /  22.4 °C 48.6 °F /  9.2 °C 30.25in /  1024.3hPa North 2.9mph /  4.7km/h 14.0mph /  22.5km/h 43% 0.00in /  0mm 694.0 W/m2
11:29 72.7 °F /  22.6 °C 48.9 °F /  9.4 °C 30.25in /  1024.3hPa NNW 13.0mph /  20.9km/h 13.0mph /  20.9km/h 43% 0.00in /  0mm 682.0 W/m2
11:35 72.7 °F /  22.6 °C 48.2 °F /  9 °C 30.25in /  1024.3hPa North 4.0mph /  6.4km/h 15.0mph /  24.1km/h 42% 0.00in /  0mm 406.0 W/m2
11:42 72.7 °F /  22.6 °C 48.9 °F /  9.4 °C 30.24in /  1023.9hPa North 6.0mph /  9.7km/h 7.0mph /  11.3km/h 43% 0.00in /  0mm 717.0 W/m2
11:48 72.9 °F /  22.7 °C 48.4 °F /  9.1 °C 30.24in /  1023.9hPa NNW 2.0mph /  3.2km/h 13.0mph /  20.9km/h 42% 0.00in /  0mm 121.0 W/m2
11:54 72.1 °F /  22.3 °C 49.1 °F /  9.5 °C 30.24in /  1023.9hPa NW 0.9mph /  1.4km/h 6.0mph /  9.7km/h 44% 0.00in /  0mm 744.0 W/m2
12:00 72.5 °F /  22.5 °C 48.0 °F /  8.9 °C 30.24in /  1023.9hPa WNW 8.9mph /  14.3km/h 15.0mph /  24.1km/h 42% 0.00in /  0mm 719.0 W/m2
12:06 72.9 °F /  22.7 °C 47.8 °F /  8.8 °C 30.23in /  1023.6hPa North 4.9mph /  7.9km/h 19.0mph /  30.6km/h 41% 0.00in /  0mm 717.0 W/m2
12:12 73.4 °F /  23 °C 48.2 °F /  9 °C 30.23in /  1023.6hPa North 2.9mph /  4.7km/h 10.0mph /  16.1km/h 41% 0.00in /  0mm 715.0 W/m2
12:18 73.8 °F /  23.2 °C 48.6 °F /  9.2 °C 30.22in /  1023.2hPa NNW 6.9mph /  11.1km/h 10.0mph /  16.1km/h 41% 0.00in /  0mm 705.0 W/m2
12:24 73.9 °F /  23.3 °C 47.5 °F /  8.6 °C 30.22in /  1023.2hPa NNE 12.1mph /  19.5km/h 14.0mph /  22.5km/h 39% 0.00in /  0mm 680.0 W/m2
12:31 73.9 °F /  23.3 °C 47.5 °F /  8.6 °C 30.21in /  1022.9hPa Calm   10.0mph /  16.1km/h 39% 0.00in /  0mm 693.0 W/m2
12:37 74.5 °F /  23.6 °C 47.8 °F /  8.8 °C 30.21in /  1022.9hPa NNW 8.9mph /  14.3km/h 14.0mph /  22.5km/h 39% 0.00in /  0mm 693.0 W/m2
12:43 74.1 °F /  23.4 °C 46.2 °F /  7.9 °C 30.21in /  1022.9hPa Calm   9.0mph /  14.5km/h 37% 0.00in /  0mm 693.0 W/m2
12:49 74.3 °F /  23.5 °C 47.1 °F /  8.4 °C 30.20in /  1022.6hPa NW 8.1mph /  13km/h 8.1mph /  13km/h 38% 0.00in /  0mm 148.0 W/m2
12:55 74.5 °F /  23.6 °C 47.1 °F /  8.4 °C 30.20in /  1022.6hPa North 6.9mph /  11.1km/h 9.0mph /  14.5km/h 38% 0.00in /  0mm 673.0 W/m2
13:01 74.7 °F /  23.7 °C 44.4 °F /  6.9 °C 30.20in /  1022.6hPa NW 4.9mph /  7.9km/h 14.0mph /  22.5km/h 34% 0.00in /  0mm 694.0 W/m2
13:07 75.4 °F /  24.1 °C 44.2 °F /  6.8 °C 30.20in /  1022.6hPa North 2.9mph /  4.7km/h 12.0mph /  19.3km/h 33% 0.00in /  0mm 686.0 W/m2
13:14 75.0 °F /  23.9 °C 44.8 °F /  7.1 °C 30.19in /  1022.2hPa NW 6.0mph /  9.7km/h 8.0mph /  12.9km/h 34% 0.00in /  0mm 192.0 W/m2
13:20 75.0 °F /  23.9 °C 44.8 °F /  7.1 °C 30.19in /  1022.2hPa WNW 4.9mph /  7.9km/h 11.0mph /  17.7km/h 34% 0.00in /  0mm 682.0 W/m2
13:26 74.7 °F /  23.7 °C 44.4 °F /  6.9 °C 30.19in /  1022.2hPa WNW 2.9mph /  4.7km/h 12.0mph /  19.3km/h 34% 0.00in /  0mm 137.0 W/m2
13:32 74.5 °F /  23.6 °C 44.2 °F /  6.8 °C 30.19in /  1022.2hPa NW 8.1mph /  13km/h 14.0mph /  22.5km/h 34% 0.00in /  0mm 599.0 W/m2
13:38 74.8 °F /  23.8 °C 43.9 °F /  6.6 °C 30.19in /  1022.2hPa NW 8.9mph /  14.3km/h 16.0mph /  25.7km/h 33% 0.00in /  0mm 615.0 W/m2
13:44 75.0 °F /  23.9 °C 43.9 °F /  6.6 °C 30.19in /  1022.2hPa NW 4.9mph /  7.9km/h 17.0mph /  27.4km/h 33% 0.00in /  0mm 610.0 W/m2
13:50 75.4 °F /  24.1 °C 43.5 °F /  6.4 °C 30.19in /  1022.2hPa NW 8.1mph /  13km/h 11.0mph /  17.7km/h 32% 0.00in /  0mm 594.0 W/m2
13:56 75.4 °F /  24.1 °C 44.2 °F /  6.8 °C 30.19in /  1022.2hPa NW 2.0mph /  3.2km/h 7.0mph /  11.3km/h 33% 0.00in /  0mm 410.0 W/m2
14:02 75.2 °F /  24 °C 44.1 °F /  6.7 °C 30.18in /  1021.9hPa North 4.9mph /  7.9km/h 17.0mph /  27.4km/h 33% 0.00in /  0mm 104.0 W/m2
14:08 74.3 °F /  23.5 °C 45.0 °F /  7.2 °C 30.19in /  1022.2hPa North 4.9mph /  7.9km/h 10.0mph /  16.1km/h 35% 0.00in /  0mm 141.0 W/m2
14:15 73.8 °F /  23.2 °C 45.1 °F /  7.3 °C 30.19in /  1022.2hPa WSW 2.9mph /  4.7km/h 14.0mph /  22.5km/h 36% 0.00in /  0mm 134.0 W/m2
14:21 73.6 °F /  23.1 °C 45.0 °F /  7.2 °C 30.18in /  1021.9hPa NNW 6.0mph /  9.7km/h 8.0mph /  12.9km/h 36% 0.00in /  0mm 155.0 W/m2
14:27 73.8 °F /  23.2 °C 44.4 °F /  6.9 °C 30.18in /  1021.9hPa West 2.0mph /  3.2km/h 20.0mph /  32.2km/h 35% 0.00in /  0mm 128.0 W/m2
14:33 73.6 °F /  23.1 °C 44.2 °F /  6.8 °C 30.18in /  1021.9hPa North 10.1mph /  16.3km/h 12.0mph /  19.3km/h 35% 0.00in /  0mm 125.0 W/m2
14:39 73.2 °F /  22.9 °C 43.9 °F /  6.6 °C 30.18in /  1021.9hPa NNW 8.9mph /  14.3km/h 10.0mph /  16.1km/h 35% 0.00in /  0mm 141.0 W/m2
14:45 73.2 °F /  22.9 °C 44.6 °F /  7 °C 30.18in /  1021.9hPa North 6.9mph /  11.1km/h 10.0mph /  16.1km/h 36% 0.00in /  0mm 130.0 W/m2
14:51 73.4 °F /  23 °C 44.1 °F /  6.7 °C 30.18in /  1021.9hPa NW 6.0mph /  9.7km/h 13.0mph /  20.9km/h 35% 0.00in /  0mm 236.0 W/m2
14:57 73.8 °F /  23.2 °C 44.4 °F /  6.9 °C 30.18in /  1021.9hPa NW 4.9mph /  7.9km/h 8.0mph /  12.9km/h 35% 0.00in /  0mm 141.0 W/m2
15:03 73.8 °F /  23.2 °C 43.7 °F /  6.5 °C 30.18in /  1021.9hPa Calm   12.0mph /  19.3km/h 34% 0.00in /  0mm 113.0 W/m2
15:09 73.8 °F /  23.2 °C 43.7 °F /  6.5 °C 30.17in /  1021.6hPa NNW 2.0mph /  3.2km/h 6.0mph /  9.7km/h 34% 0.00in /  0mm 218.0 W/m2
15:15 74.5 °F /  23.6 °C 44.2 °F /  6.8 °C 30.18in /  1021.9hPa NNW 6.9mph /  11.1km/h 9.0mph /  14.5km/h 34% 0.00in /  0mm 359.0 W/m2
15:21 74.8 °F /  23.8 °C 43.0 °F /  6.1 °C 30.18in /  1021.9hPa NNW 4.0mph /  6.4km/h 5.0mph /  8km/h 32% 0.00in /  0mm 104.0 W/m2
15:28 75.0 °F /  23.9 °C 42.3 °F /  5.7 °C 30.18in /  1021.9hPa WNW 4.9mph /  7.9km/h 13.0mph /  20.9km/h 31% 0.00in /  0mm 84.0 W/m2
15:34 74.8 °F /  23.8 °C 42.3 °F /  5.7 °C 30.18in /  1021.9hPa NNW 4.0mph /  6.4km/h 11.0mph /  17.7km/h 31% 0.00in /  0mm 70.0 W/m2
15:40 74.7 °F /  23.7 °C 42.1 °F /  5.6 °C 30.18in /  1021.9hPa WNW 2.0mph /  3.2km/h 8.0mph /  12.9km/h 31% 0.00in /  0mm 72.0 W/m2
15:46 74.5 °F /  23.6 °C 41.0 °F /  5 °C 30.18in /  1021.9hPa WSW 4.9mph /  7.9km/h 10.0mph /  16.1km/h 30% 0.00in /  0mm 58.0 W/m2
15:52 74.3 °F /  23.5 °C 41.7 °F /  5.4 °C 30.19in /  1022.2hPa Calm   3.0mph /  4.8km/h 31% 0.00in /  0mm 69.0 W/m2
15:58 73.9 °F /  23.3 °C 41.4 °F /  5.2 °C 30.18in /  1021.9hPa West 2.9mph /  4.7km/h 10.0mph /  16.1km/h 31% 0.00in /  0mm 62.0 W/m2
16:04 73.8 °F /  23.2 °C 40.5 °F /  4.7 °C 30.19in /  1022.2hPa NW 4.0mph /  6.4km/h 8.0mph /  12.9km/h 30% 0.00in /  0mm 58.0 W/m2
16:10 73.8 °F /  23.2 °C 40.5 °F /  4.7 °C 30.19in /  1022.2hPa Calm   9.0mph /  14.5km/h 30% 0.00in /  0mm 51.0 W/m2
16:16 73.6 °F /  23.1 °C 41.0 °F /  5 °C 30.19in /  1022.2hPa Calm   5.0mph /  8km/h 31% 0.00in /  0mm 44.0 W/m2
16:22 73.2 °F /  22.9 °C 39.9 °F /  4.4 °C 30.19in /  1022.2hPa West 4.9mph /  7.9km/h 8.0mph /  12.9km/h 30% 0.00in /  0mm 33.0 W/m2
16:28 73.0 °F /  22.8 °C 40.6 °F /  4.8 °C 30.19in /  1022.2hPa SSW 2.0mph /  3.2km/h 4.0mph /  6.4km/h 31% 0.00in /  0mm 26.0 W/m2
16:34 72.7 °F /  22.6 °C 39.4 °F /  4.1 °C 30.19in /  1022.2hPa West 2.9mph /  4.7km/h 5.0mph /  8km/h 30% 0.00in /  0mm 23.0 W/m2
16:40 72.3 °F /  22.4 °C 38.3 °F /  3.5 °C 30.19in /  1022.2hPa Calm   10.0mph /  16.1km/h 29% 0.00in /  0mm 19.0 W/m2
16:46 72.1 °F /  22.3 °C 38.1 °F /  3.4 °C 30.20in /  1022.6hPa Calm   2.0mph /  3.2km/h 29% 0.00in /  0mm 18.0 W/m2
16:52 72.0 °F /  22.2 °C 37.9 °F /  3.3 °C 30.20in /  1022.6hPa WNW 2.9mph /  4.7km/h 10.0mph /  16.1km/h 29% 0.00in /  0mm 14.0 W/m2
16:58 71.6 °F /  22 °C 37.6 °F /  3.1 °C 30.20in /  1022.6hPa North 6.0mph /  9.7km/h 6.0mph /  9.7km/h 29% 0.00in /  0mm 12.0 W/m2
17:04 71.2 °F /  21.8 °C 35.6 °F /  2 °C 30.20in /  1022.6hPa Calm   11.0mph /  17.7km/h 27% 0.00in /  0mm 9.0 W/m2
17:10 71.1 °F /  21.7 °C 34.5 °F /  1.4 °C 30.20in /  1022.6hPa NNW 0.9mph /  1.4km/h 3.0mph /  4.8km/h 26% 0.00in /  0mm 5.0 W/m2
17:16 70.5 °F /  21.4 °C 34.9 °F /  1.6 °C 30.21in /  1022.9hPa Calm   5.0mph /  8km/h 27% 0.00in /  0mm 0.0 W/m2
17:22 70.3 °F /  21.3 °C 34.7 °F /  1.5 °C 30.21in /  1022.9hPa NNW 2.9mph /  4.7km/h 7.0mph /  11.3km/h 27% 0.00in /  0mm 0.0 W/m2
17:28 70.0 °F /  21.1 °C 34.5 °F /  1.4 °C 30.21in /  1022.9hPa NNE 2.0mph /  3.2km/h 3.0mph /  4.8km/h 27% 0.00in /  0mm 0.0 W/m2
17:34 69.6 °F /  20.9 °C 34.2 °F /  1.2 °C 30.21in /  1022.9hPa Calm   5.0mph /  8km/h 27% 0.00in /  0mm 0.0 W/m2
17:40 69.3 °F /  20.7 °C 33.8 °F /  1 °C 30.22in /  1023.2hPa NNW 0.9mph /  1.4km/h 7.0mph /  11.3km/h 27% 0.00in /  0mm 0.0 W/m2
17:46 68.9 °F /  20.5 °C 34.5 °F /  1.4 °C 30.22in /  1023.2hPa Calm   1.0mph /  1.6km/h 28% 0.00in /  0mm 0.0 W/m2
17:52 68.4 °F /  20.2 °C 34.0 °F /  1.1 °C 30.22in /  1023.2hPa Calm   5.0mph /  8km/h 28% 0.00in /  0mm 0.0 W/m2
17:58 68.2 °F /  20.1 °C 34.7 °F /  1.5 °C 30.23in /  1023.6hPa Calm   3.0mph /  4.8km/h 29% 0.00in /  0mm 0.0 W/m2
18:04 67.8 °F /  19.9 °C 36.9 °F /  2.7 °C 30.23in /  1023.6hPa Calm   10.0mph /  16.1km/h 32% 0.00in /  0mm 0.0 W/m2
18:10 67.8 °F /  19.9 °C 38.5 °F /  3.6 °C 30.23in /  1023.6hPa WNW 2.0mph /  3.2km/h 5.0mph /  8km/h 34% 0.00in /  0mm 0.0 W/m2
18:16 67.6 °F /  19.8 °C 39.0 °F /  3.9 °C 30.24in /  1023.9hPa Calm   4.0mph /  6.4km/h 35% 0.00in /  0mm 0.0 W/m2
18:22 67.3 °F /  19.6 °C 39.4 °F /  4.1 °C 30.24in /  1023.9hPa Calm   4.0mph /  6.4km/h 36% 0.00in /  0mm 0.0 W/m2
18:28 66.7 °F /  19.3 °C 39.0 °F /  3.9 °C 30.24in /  1023.9hPa Calm   1.0mph /  1.6km/h 36% 0.00in /  0mm 0.0 W/m2
18:34 66.4 °F /  19.1 °C 39.4 °F /  4.1 °C 30.24in /  1023.9hPa WSW 0.9mph /  1.4km/h 5.0mph /  8km/h 37% 0.00in /  0mm 0.0 W/m2
18:40 66.0 °F /  18.9 °C 39.0 °F /  3.9 °C 30.24in /  1023.9hPa Calm   4.0mph /  6.4km/h 37% 0.00in /  0mm 0.0 W/m2
18:46 65.7 °F /  18.7 °C 39.4 °F /  4.1 °C 30.24in /  1023.9hPa West 0.9mph /  1.4km/h 7.0mph /  11.3km/h 38% 0.00in /  0mm 0.0 W/m2
18:52 65.5 °F /  18.6 °C 39.2 °F /  4 °C 30.25in /  1024.3hPa Calm   3.0mph /  4.8km/h 38% 0.00in /  0mm 0.0 W/m2
19:04 64.8 °F /  18.2 °C 39.2 °F /  4 °C 30.24in /  1023.9hPa NW 0.9mph /  1.4km/h 3.0mph /  4.8km/h 39% 0.00in /  0mm 0.0 W/m2
19:10 64.4 °F /  18 °C 38.8 °F /  3.8 °C 30.24in /  1023.9hPa WNW 0.9mph /  1.4km/h 3.0mph /  4.8km/h 39% 0.00in /  0mm 0.0 W/m2
19:16 64.2 °F /  17.9 °C 38.7 °F /  3.7 °C 30.24in /  1023.9hPa Calm   1.0mph /  1.6km/h 39% 0.00in /  0mm 0.0 W/m2
19:22 63.9 °F /  17.7 °C 39.0 °F /  3.9 °C 30.24in /  1023.9hPa Calm   2.0mph /  3.2km/h 40% 0.00in /  0mm 0.0 W/m2
19:28 63.5 °F /  17.5 °C 38.7 °F /  3.7 °C 30.24in /  1023.9hPa Calm   1.0mph /  1.6km/h 40% 0.00in /  0mm 0.0 W/m2
19:34 63.1 °F /  17.3 °C 39.0 °F /  3.9 °C 30.25in /  1024.3hPa Calm   1.0mph /  1.6km/h 41% 0.00in /  0mm 0.0 W/m2
19:40 62.8 °F /  17.1 °C 39.4 °F /  4.1 °C 30.25in /  1024.3hPa Calm   1.0mph /  1.6km/h 42% 0.00in /  0mm 0.0 W/m2
19:46 62.4 °F /  16.9 °C 39.0 °F /  3.9 °C 30.25in /  1024.3hPa Calm   2.0mph /  3.2km/h 42% 0.00in /  0mm 0.0 W/m2
19:52 62.1 °F /  16.7 °C 39.4 °F /  4.1 °C 30.25in /  1024.3hPa Calm   2.0mph /  3.2km/h 43% 0.00in /  0mm 0.0 W/m2
19:58 61.9 °F /  16.6 °C 39.2 °F /  4 °C 30.25in /  1024.3hPa Calm   2.0mph /  3.2km/h 43% 0.00in /  0mm 0.0 W/m2
20:04 61.7 °F /  16.5 °C 39.6 °F /  4.2 °C 30.25in /  1024.3hPa ESE 0.9mph /  1.4km/h 2.0mph /  3.2km/h 44% 0.00in /  0mm 0.0 W/m2
20:10 61.5 °F /  16.4 °C 39.4 °F /  4.1 °C 30.25in /  1024.3hPa Calm   2.0mph /  3.2km/h 44% 0.00in /  0mm 0.0 W/m2
20:16 61.5 °F /  16.4 °C 39.4 °F /  4.1 °C 30.25in /  1024.3hPa West 6.0mph /  9.7km/h 7.0mph /  11.3km/h 44% 0.00in /  0mm 0.0 W/m2
20:22 61.7 °F /  16.5 °C 39.6 °F /  4.2 °C 30.25in /  1024.3hPa Calm   2.0mph /  3.2km/h 44% 0.00in /  0mm 0.0 W/m2
20:28 61.9 °F /  16.6 °C 39.7 °F /  4.3 °C 30.25in /  1024.3hPa NW 0.9mph /  1.4km/h 1.0mph /  1.6km/h 44% 0.00in /  0mm 0.0 W/m2
20:34 62.1 °F /  16.7 °C 40.5 °F /  4.7 °C 30.25in /  1024.3hPa Calm   8.0mph /  12.9km/h 45% 0.00in /  0mm 0.0 W/m2
20:40 62.2 °F /  16.8 °C 40.6 °F /  4.8 °C 30.25in /  1024.3hPa West 2.9mph /  4.7km/h 11.0mph /  17.7km/h 45% 0.00in /  0mm 0.0 W/m2
20:46 62.4 °F /  16.9 °C 40.8 °F /  4.9 °C 30.25in /  1024.3hPa West 2.9mph /  4.7km/h 8.0mph /  12.9km/h 45% 0.00in /  0mm 0.0 W/m2
20:52 62.8 °F /  17.1 °C 40.5 °F /  4.7 °C 30.25in /  1024.3hPa West 4.9mph /  7.9km/h 6.0mph /  9.7km/h 44% 0.00in /  0mm 0.0 W/m2
20:58 62.8 °F /  17.1 °C 40.5 °F /  4.7 °C 30.26in /  1024.6hPa Calm     44% 0.00in /  0mm 0.0 W/m2
21:04 62.6 °F /  17 °C 39.7 °F /  4.3 °C 30.26in /  1024.6hPa West 4.9mph /  7.9km/h 9.0mph /  14.5km/h 43% 0.00in /  0mm 0.0 W/m2
21:10 62.8 °F /  17.1 °C 39.4 °F /  4.1 °C 30.26in /  1024.6hPa Calm   1.0mph /  1.6km/h 42% 0.00in /  0mm 0.0 W/m2
21:16 62.8 °F /  17.1 °C 39.4 °F /  4.1 °C 30.26in /  1024.6hPa Calm   1.0mph /  1.6km/h 42% 0.00in /  0mm 0.0 W/m2
21:22 62.4 °F /  16.9 °C 38.5 °F /  3.6 °C 30.26in /  1024.6hPa Calm   5.0mph /  8km/h 41% 0.00in /  0mm 0.0 W/m2
21:28 62.2 °F /  16.8 °C 38.3 °F /  3.5 °C 30.27in /  1024.9hPa Calm   6.0mph /  9.7km/h 41% 0.00in /  0mm 0.0 W/m2
21:34 62.1 °F /  16.7 °C 38.7 °F /  3.7 °C 30.27in /  1024.9hPa NE 2.0mph /  3.2km/h 5.0mph /  8km/h 42% 0.00in /  0mm 0.0 W/m2
21:40 61.5 °F /  16.4 °C 39.4 °F /  4.1 °C 30.27in /  1024.9hPa NNE 2.9mph /  4.7km/h 5.0mph /  8km/h 44% 0.00in /  0mm 0.0 W/m2
21:46 61.0 °F /  16.1 °C 39.6 °F /  4.2 °C 30.27in /  1024.9hPa NW 0.9mph /  1.4km/h 4.0mph /  6.4km/h 45% 0.00in /  0mm 0.0 W/m2
21:52 60.6 °F /  15.9 °C 39.7 °F /  4.3 °C 30.27in /  1024.9hPa North 0.9mph /  1.4km/h 3.0mph /  4.8km/h 46% 0.00in /  0mm 0.0 W/m2
21:58 60.3 °F /  15.7 °C 39.4 °F /  4.1 °C 30.27in /  1024.9hPa NNW 0.9mph /  1.4km/h 6.0mph /  9.7km/h 46% 0.00in /  0mm 0.0 W/m2
22:04 60.1 °F /  15.6 °C 39.2 °F /  4 °C 30.27in /  1024.9hPa Calm   1.0mph /  1.6km/h 46% 0.00in /  0mm 0.0 W/m2
22:10 59.7 °F /  15.4 °C 38.8 °F /  3.8 °C 30.27in /  1024.9hPa Calm   1.0mph /  1.6km/h 46% 0.00in /  0mm 0.0 W/m2
22:16 59.5 °F /  15.3 °C 38.7 °F /  3.7 °C 30.26in /  1024.6hPa Calm     46% 0.00in /  0mm 0.0 W/m2
22:22 59.4 °F /  15.2 °C 38.7 °F /  3.7 °C 30.27in /  1024.9hPa Calm     46% 0.00in /  0mm 0.0 W/m2
22:29 58.8 °F /  14.9 °C 38.7 °F /  3.7 °C 30.26in /  1024.6hPa Calm     47% 0.00in /  0mm 0.0 W/m2
22:35 58.3 °F /  14.6 °C 37.6 °F /  3.1 °C 30.26in /  1024.6hPa Calm     46% 0.00in /  0mm 0.0 W/m2
22:41 57.7 °F /  14.3 °C 37.0 °F /  2.8 °C 30.26in /  1024.6hPa Calm     46% 0.00in /  0mm 0.0 W/m2
22:47 57.6 °F /  14.2 °C 36.9 °F /  2.7 °C 30.26in /  1024.6hPa Calm     46% 0.00in /  0mm 0.0 W/m2
22:53 57.0 °F /  13.9 °C 37.0 °F /  2.8 °C 30.26in /  1024.6hPa Calm     47% 0.00in /  0mm 0.0 W/m2
22:59 56.7 °F /  13.7 °C 36.7 °F /  2.6 °C 30.25in /  1024.3hPa Calm     47% 0.00in /  0mm 0.0 W/m2
23:05 56.1 °F /  13.4 °C 36.7 °F /  2.6 °C 30.25in /  1024.3hPa Calm     48% 0.00in /  0mm 0.0 W/m2
23:11 55.8 °F /  13.2 °C 36.9 °F /  2.7 °C 30.26in /  1024.6hPa Calm     49% 0.00in /  0mm 0.0 W/m2
23:17 55.2 °F /  12.9 °C 36.9 °F /  2.7 °C 30.26in /  1024.6hPa Calm     50% 0.00in /  0mm 0.0 W/m2
23:23 54.9 °F /  12.7 °C 36.5 °F /  2.5 °C 30.26in /  1024.6hPa Calm     50% 0.00in /  0mm 0.0 W/m2
23:29 54.3 °F /  12.4 °C 36.5 °F /  2.5 °C 30.25in /  1024.3hPa Calm     51% 0.00in /  0mm 0.0 W/m2
23:35 54.0 °F /  12.2 °C 36.7 °F /  2.6 °C 30.25in /  1024.3hPa Calm     52% 0.00in /  0mm 0.0 W/m2
23:41 53.4 °F /  11.9 °C 36.3 °F /  2.4 °C 30.25in /  1024.3hPa Calm     52% 0.00in /  0mm 0.0 W/m2
23:48 53.2 °F /  11.8 °C 36.5 °F /  2.5 °C 30.25in /  1024.3hPa Calm     53% 0.00in /  0mm 0.0 W/m2
23:54 52.9 °F /  11.6 °C 36.7 °F /  2.6 °C 30.25in /  1024.3hPa Calm     54% 0.00in /  0mm 0.0 W/m2
Olympia, Windhoek, Namibia
Compliments of Weather Underground - 3 mb